createdAt,value
2023-03-27T00:02:15.522Z,6.59
2023-03-27T00:04:43.173Z,6.87
2023-03-27T00:07:10.795Z,6.92
2023-03-27T00:09:39.204Z,6.59
2023-03-27T00:12:07.233Z,7.31
2023-03-27T00:14:36.343Z,6.81
2023-03-27T00:17:05.154Z,6.70
2023-03-27T00:19:34.482Z,6.69
2023-03-27T00:22:02.109Z,6.97
2023-03-27T00:24:29.747Z,6.79
2023-03-27T00:26:58.204Z,6.72
2023-03-27T00:29:25.835Z,7.06
2023-03-27T00:31:53.483Z,6.86
2023-03-27T00:34:21.274Z,6.48
2023-03-27T00:36:51.272Z,6.78
2023-03-27T00:39:19.256Z,7.01
2023-03-27T00:41:47.494Z,6.90
2023-03-27T00:44:23.870Z,6.81
2023-03-27T00:46:51.780Z,6.95
2023-03-27T00:49:19.447Z,6.95
2023-03-27T00:51:48.496Z,6.51
2023-03-27T00:54:21.743Z,6.74
2023-03-27T00:56:49.960Z,6.51
2023-03-27T00:59:18.998Z,6.74
2023-03-27T01:01:47.460Z,6.85
2023-03-27T01:04:20.499Z,6.90
2023-03-27T01:06:50.257Z,6.75
2023-03-27T01:09:21.257Z,6.38
2023-03-27T01:11:55.869Z,7.00
2023-03-27T01:14:29.458Z,6.83
2023-03-27T01:17:08.073Z,6.94
2023-03-27T01:19:52.217Z,6.80
2023-03-27T01:22:39.831Z,6.63
2023-03-27T01:25:30.759Z,6.51
2023-03-27T01:28:11.724Z,6.82
2023-03-27T01:30:41.404Z,6.32
2023-03-27T01:33:26.609Z,6.37
2023-03-27T01:36:02.763Z,6.39
2023-03-27T01:38:44.434Z,6.50
2023-03-27T01:41:15.707Z,6.60
2023-03-27T01:43:49.201Z,5.78
2023-03-27T01:46:21.371Z,6.43
2023-03-27T01:48:51.599Z,6.09
2023-03-27T01:51:29.993Z,6.27
2023-03-27T01:54:01.053Z,6.53
2023-03-27T01:56:32.965Z,6.49
2023-03-27T01:59:04.150Z,6.01
2023-03-27T02:01:35.729Z,5.88
2023-03-27T02:04:04.751Z,6.28
2023-03-27T02:06:35.321Z,6.41
2023-03-27T02:09:07.012Z,5.90
2023-03-27T02:11:38.963Z,5.95
2023-03-27T02:14:08.941Z,6.02
2023-03-27T02:16:42.519Z,5.76
2023-03-27T02:19:13.165Z,5.68
2023-03-27T02:21:40.804Z,5.72
2023-03-27T02:24:09.086Z,5.72
2023-03-27T02:26:38.188Z,5.65
2023-03-27T02:29:23.713Z,5.66
2023-03-27T02:32:00.370Z,5.81
2023-03-27T02:35:00.194Z,5.94
2023-03-27T02:37:36.184Z,6.19
2023-03-27T02:40:13.789Z,6.82
2023-03-27T02:42:54.094Z,6.27
2023-03-27T02:45:26.441Z,5.91
2023-03-27T02:47:56.518Z,5.65
2023-03-27T02:50:27.717Z,5.90
2023-03-27T02:52:57.849Z,5.82
2023-03-27T02:55:28.534Z,5.79
2023-03-27T02:58:00.135Z,5.69
2023-03-27T03:00:29.624Z,5.41
2023-03-27T03:03:02.142Z,5.60
2023-03-27T03:05:30.296Z,5.65
2023-03-27T03:07:58.314Z,5.51
2023-03-27T03:10:26.396Z,5.31
2023-03-27T03:12:54.168Z,6.07
2023-03-27T03:15:23.589Z,6.10
2023-03-27T03:17:51.379Z,5.55
2023-03-27T03:20:19.038Z,5.98
2023-03-27T03:22:46.680Z,5.33
2023-03-27T03:25:14.660Z,5.68
2023-03-27T03:27:44.223Z,5.79
2023-03-27T03:30:16.974Z,5.57
2023-03-27T03:32:47.313Z,5.74
2023-03-27T03:35:15.283Z,5.64
2023-03-27T03:37:42.937Z,5.61
2023-03-27T03:40:11.851Z,5.67
2023-03-27T03:42:45.388Z,5.67
2023-03-27T03:45:13.384Z,5.60
2023-03-27T03:47:41.321Z,5.57
2023-03-27T03:50:11.888Z,5.45
2023-03-27T03:52:39.892Z,5.50
2023-03-27T03:55:09.125Z,5.66
2023-03-27T03:57:37.505Z,5.61
2023-03-27T04:00:08.922Z,5.13
2023-03-27T04:02:38.327Z,5.31
2023-03-27T04:05:08.560Z,5.60
2023-03-27T04:07:39.967Z,5.13
2023-03-27T04:10:09.329Z,5.43
2023-03-27T04:12:37.032Z,5.58
2023-03-27T04:15:05.286Z,5.57
2023-03-27T04:17:33.529Z,5.00
2023-03-27T04:20:02.253Z,5.48
2023-03-27T04:22:29.968Z,4.89
2023-03-27T04:24:59.095Z,5.16
2023-03-27T04:27:30.453Z,4.79
2023-03-27T04:29:58.178Z,5.29
2023-03-27T04:32:26.372Z,5.05
2023-03-27T04:34:55.414Z,5.29
2023-03-27T04:37:24.150Z,5.28
2023-03-27T04:39:52.589Z,5.17
2023-03-27T04:42:23.506Z,4.72
2023-03-27T04:44:53.099Z,4.80
2023-03-27T04:47:21.604Z,5.17
2023-03-27T04:49:51.159Z,4.96
2023-03-27T04:52:19.487Z,5.12
2023-03-27T04:54:48.347Z,5.12
2023-03-27T04:57:18.988Z,5.15
2023-03-27T04:59:48.639Z,4.87
2023-03-27T05:02:16.507Z,4.86
2023-03-27T05:04:44.224Z,4.98
2023-03-27T05:07:12.492Z,4.94
2023-03-27T05:09:40.185Z,4.94
2023-03-27T05:12:08.232Z,5.25
2023-03-27T05:14:36.784Z,4.98
2023-03-27T05:17:06.894Z,5.14
2023-03-27T05:19:35.167Z,5.47
2023-03-27T05:22:03.219Z,5.65
2023-03-27T05:24:31.194Z,5.67
2023-03-27T05:26:58.907Z,5.67
2023-03-27T05:29:26.921Z,5.53
2023-03-27T05:31:54.623Z,5.79
2023-03-27T05:34:23.930Z,5.40
2023-03-27T05:36:51.594Z,5.87
2023-03-27T05:39:19.869Z,5.61
2023-03-27T05:41:47.631Z,5.82
2023-03-27T05:44:15.341Z,5.49
2023-03-27T05:46:44.072Z,6.47
2023-03-27T05:49:11.860Z,5.54
2023-03-27T05:51:47.007Z,6.20
2023-03-27T05:54:15.008Z,6.39
2023-03-27T05:56:42.732Z,5.88
2023-03-27T05:59:10.465Z,5.87
2023-03-27T06:01:39.860Z,6.11
2023-03-27T06:04:09.343Z,6.81
2023-03-27T06:06:37.462Z,6.77
2023-03-27T06:09:07.803Z,6.76
2023-03-27T06:11:36.171Z,6.76
2023-03-27T06:14:04.162Z,6.49
2023-03-27T06:16:32.193Z,6.87
2023-03-27T06:19:00.124Z,6.34
2023-03-27T06:21:27.856Z,6.99
2023-03-27T06:23:56.315Z,5.99
2023-03-27T06:26:25.420Z,6.70
2023-03-27T06:28:53.499Z,5.93
2023-03-27T06:31:22.076Z,6.43
2023-03-27T06:33:50.228Z,6.61
2023-03-27T06:36:18.256Z,5.99
2023-03-27T06:38:46.151Z,6.55
2023-03-27T06:41:13.841Z,6.59
2023-03-27T06:43:42.977Z,6.70
2023-03-27T06:46:42.810Z,6.96
2023-03-27T06:49:13.324Z,6.45
2023-03-27T06:51:41.149Z,6.62
2023-03-27T06:54:08.833Z,7.02
2023-03-27T06:56:36.688Z,6.71
2023-03-27T06:59:07.265Z,7.01
2023-03-27T07:01:35.110Z,6.71
2023-03-27T07:04:02.957Z,6.66
2023-03-27T07:06:31.438Z,6.39
2023-03-27T07:08:59.301Z,6.85
2023-03-27T07:11:27.034Z,7.39
2023-03-27T07:13:54.783Z,7.23
2023-03-27T07:16:23.872Z,7.45
2023-03-27T07:18:51.680Z,7.66
2023-03-27T07:21:19.341Z,7.33
2023-03-27T07:23:47.432Z,7.74
2023-03-27T07:26:15.716Z,7.71
2023-03-27T07:28:45.249Z,7.33
2023-03-27T07:31:29.888Z,7.71
2023-03-27T07:34:03.133Z,7.49
2023-03-27T07:36:30.912Z,7.61
2023-03-27T07:38:59.082Z,8.18
2023-03-27T07:41:27.176Z,8.36
2023-03-27T07:43:55.007Z,8.20
2023-03-27T07:46:24.234Z,8.22
2023-03-27T07:48:52.361Z,8.16
2023-03-27T07:51:22.720Z,7.92
2023-03-27T07:53:55.128Z,8.09
2023-03-27T07:56:23.370Z,8.00
2023-03-27T07:58:51.530Z,8.40
2023-03-27T08:01:19.525Z,9.16
2023-03-27T08:03:48.620Z,8.21
2023-03-27T08:06:16.680Z,8.49
2023-03-27T08:08:46.275Z,8.32
2023-03-27T08:11:27.407Z,8.35
2023-03-27T08:13:58.462Z,8.55
2023-03-27T08:16:29.260Z,9.51
2023-03-27T08:18:57.621Z,8.85
2023-03-27T08:21:25.352Z,9.07
2023-03-27T08:23:57.345Z,9.11
2023-03-27T08:26:26.463Z,8.61
2023-03-27T08:28:56.167Z,9.17
2023-03-27T08:31:25.886Z,10.29
2023-03-27T08:33:53.687Z,9.54
2023-03-27T08:36:21.975Z,9.42
2023-03-27T08:38:50.000Z,9.54
2023-03-27T08:41:27.162Z,9.42
2023-03-27T08:43:57.725Z,8.87
2023-03-27T08:46:28.956Z,9.14
2023-03-27T08:48:59.458Z,8.43
2023-03-27T08:51:29.448Z,8.70
2023-03-27T08:57:28.298Z,10.16
2023-03-27T08:59:59.404Z,10.30
2023-03-27T09:02:31.082Z,10.08
2023-03-27T09:05:01.732Z,9.26
2023-03-27T09:07:34.785Z,8.93
2023-03-27T09:10:05.585Z,9.84
2023-03-27T09:12:43.910Z,10.80
2023-03-27T09:15:14.546Z,10.12
2023-03-27T09:17:45.829Z,10.31
2023-03-27T09:20:20.884Z,9.38
2023-03-27T09:22:52.842Z,9.67
2023-03-27T09:25:28.343Z,9.66
2023-03-27T09:27:58.889Z,10.04
2023-03-27T09:30:28.705Z,9.94
2023-03-27T09:32:58.252Z,11.03
2023-03-27T09:35:26.319Z,10.35
2023-03-27T09:37:58.856Z,10.87
2023-03-27T09:40:31.671Z,10.32
2023-03-27T09:43:06.206Z,10.27
2023-03-27T09:45:34.731Z,9.93
2023-03-27T09:48:04.096Z,11.34
2023-03-27T09:50:34.503Z,10.50
2023-03-27T09:53:10.463Z,10.76
2023-03-27T09:55:50.579Z,10.35
2023-03-27T09:58:29.921Z,9.93
2023-03-27T10:01:09.661Z,10.66
2023-03-27T10:03:43.122Z,10.63
2023-03-27T10:06:14.747Z,10.47
2023-03-27T10:08:47.307Z,10.16
2023-03-27T10:11:19.774Z,10.76
2023-03-27T10:13:50.881Z,10.60
2023-03-27T10:16:20.205Z,10.81
2023-03-27T10:18:49.424Z,10.98
2023-03-27T10:21:21.194Z,10.91
2023-03-27T10:23:50.556Z,10.51
2023-03-27T10:26:20.189Z,11.12
2023-03-27T10:28:51.560Z,11.45
2023-03-27T10:31:29.603Z,11.24
2023-03-27T10:33:58.315Z,11.44
2023-03-27T10:36:26.742Z,11.37
2023-03-27T10:38:57.837Z,12.42
2023-03-27T10:41:28.483Z,11.58
2023-03-27T10:43:58.865Z,11.97
2023-03-27T10:46:28.440Z,10.73
2023-03-27T10:49:03.853Z,10.14
2023-03-27T10:51:46.127Z,10.32
2023-03-27T10:54:20.468Z,9.89
2023-03-27T10:56:54.928Z,9.14
2023-03-27T10:59:40.639Z,9.45
2023-03-27T11:02:14.446Z,9.24
2023-03-27T11:04:47.604Z,10.89
2023-03-27T11:07:20.690Z,9.45
2023-03-27T11:09:57.225Z,10.92
2023-03-27T11:12:26.076Z,10.69
2023-03-27T11:15:01.056Z,10.53
2023-03-27T11:17:32.899Z,11.89
2023-03-27T11:20:07.337Z,10.88
2023-03-27T11:22:37.678Z,11.89
2023-03-27T11:25:12.219Z,10.49
2023-03-27T11:27:43.126Z,10.70
2023-03-27T11:30:32.560Z,11.36
2023-03-27T11:33:09.501Z,11.72
2023-03-27T11:35:39.584Z,11.36
2023-03-27T11:38:21.765Z,9.62
2023-03-27T11:40:50.225Z,8.86
2023-03-27T11:43:19.604Z,7.76
2023-03-27T11:45:55.189Z,7.32
2023-03-27T11:48:45.035Z,6.84
2023-03-27T11:51:18.516Z,6.82
2023-03-27T11:54:00.656Z,7.19
2023-03-27T11:56:39.890Z,7.93
2023-03-27T11:59:18.327Z,7.50
2023-03-27T12:04:51.882Z,8.39
2023-03-27T12:07:35.989Z,8.25
2023-03-27T12:10:16.313Z,9.15
2023-03-27T12:13:28.766Z,8.06
2023-03-27T12:16:12.507Z,9.54
2023-03-27T12:19:02.117Z,9.82
2023-03-27T12:21:48.037Z,9.22
2023-03-27T12:24:53.428Z,9.23
2023-03-27T12:27:44.779Z,10.22
2023-03-27T12:30:22.989Z,10.44
2023-03-27T12:33:13.518Z,10.15
2023-03-27T12:35:43.526Z,10.74
2023-03-27T12:38:23.672Z,10.52
2023-03-27T12:41:02.831Z,10.73
2023-03-27T12:43:33.801Z,10.47
2023-03-27T12:46:15.702Z,11.60
2023-03-27T12:48:57.101Z,10.55
2023-03-27T12:51:39.600Z,10.91
2023-03-27T12:54:23.905Z,10.42
2023-03-27T12:56:52.862Z,10.36
2023-03-27T12:59:22.264Z,10.25
2023-03-27T13:02:17.046Z,10.22
2023-03-27T13:04:57.549Z,9.57
2023-03-27T13:07:28.693Z,6.51
2023-03-27T13:10:08.293Z,6.04
2023-03-27T13:12:50.728Z,6.90
2023-03-27T13:16:03.287Z,7.77
2023-03-27T13:18:41.459Z,9.41
2023-03-27T13:21:19.177Z,10.66
2023-03-27T13:24:03.968Z,9.65
2023-03-27T13:27:05.836Z,10.73
2023-03-27T13:29:35.875Z,10.62
2023-03-27T13:32:07.319Z,11.00
2023-03-27T13:34:40.171Z,11.02
2023-03-27T13:37:48.179Z,12.53
2023-03-27T13:40:20.540Z,13.20
2023-03-27T13:42:52.534Z,12.50
2023-03-27T13:45:23.415Z,12.82
2023-03-27T13:48:15.046Z,12.24
2023-03-27T13:51:06.452Z,12.11
2023-03-27T13:53:44.955Z,13.06
2023-03-27T13:56:27.729Z,14.32
2023-03-27T13:59:22.596Z,14.09
2023-03-27T14:01:57.409Z,13.51
2023-03-27T14:04:45.903Z,11.81
2023-03-27T14:07:53.530Z,10.78
2023-03-27T14:10:35.352Z,10.90
2023-03-27T14:13:18.247Z,10.04
2023-03-27T14:15:59.708Z,10.06
2023-03-27T14:18:48.195Z,11.81
2023-03-27T14:21:27.676Z,11.99
2023-03-27T14:24:08.616Z,13.89
2023-03-27T14:26:39.142Z,13.79
2023-03-27T14:29:07.026Z,14.55
2023-03-27T14:31:36.348Z,14.30
2023-03-27T14:34:06.445Z,13.96
2023-03-27T14:36:35.945Z,14.75
2023-03-27T14:39:08.408Z,14.32
2023-03-27T14:41:36.185Z,14.67
2023-03-27T14:44:05.857Z,12.94
2023-03-27T14:46:36.190Z,12.90
2023-03-27T14:49:04.159Z,13.84
2023-03-27T14:51:37.228Z,13.91
2023-03-27T14:54:07.983Z,13.83
2023-03-27T14:56:38.267Z,14.28
2023-03-27T14:59:08.859Z,15.84
2023-03-27T15:01:38.302Z,16.06
2023-03-27T15:04:07.880Z,17.17
2023-03-27T15:06:37.582Z,18.26
2023-03-27T15:09:06.568Z,16.65
2023-03-27T15:11:38.349Z,15.10
2023-03-27T15:14:06.734Z,15.66
2023-03-27T15:16:37.374Z,15.31
2023-03-27T15:19:12.368Z,17.27
2023-03-27T15:21:50.937Z,17.45
2023-03-27T15:24:21.861Z,17.19
2023-03-27T15:26:50.751Z,16.42
2023-03-27T15:29:24.454Z,15.40
2023-03-27T15:31:54.722Z,17.33
2023-03-27T15:34:25.041Z,14.84
2023-03-27T15:36:56.922Z,12.60
2023-03-27T15:39:26.560Z,13.44
2023-03-27T15:41:55.129Z,14.58
2023-03-27T15:44:25.354Z,14.75
2023-03-27T15:46:56.342Z,17.88
2023-03-27T15:49:30.470Z,15.01
2023-03-27T15:51:59.496Z,15.20
2023-03-27T15:54:30.040Z,12.45
2023-03-27T15:57:10.526Z,12.14
2023-03-27T15:59:52.998Z,11.88
2023-03-27T16:02:25.480Z,10.93
2023-03-27T16:04:55.241Z,10.72
2023-03-27T16:07:25.425Z,10.57
2023-03-27T16:09:54.857Z,9.85
2023-03-27T16:12:28.260Z,9.89
2023-03-27T16:14:58.156Z,10.08
2023-03-27T16:17:34.315Z,10.35
2023-03-27T16:20:07.465Z,10.11
2023-03-27T16:22:36.671Z,10.08
2023-03-27T16:25:05.946Z,9.36
2023-03-27T16:27:36.522Z,9.31
2023-03-27T16:30:04.896Z,8.83
2023-03-27T16:32:33.982Z,8.48
2023-03-27T16:35:08.629Z,8.70
2023-03-27T16:37:36.592Z,9.94
2023-03-27T16:40:05.672Z,10.43
2023-03-27T16:42:33.578Z,11.89
2023-03-27T16:45:01.889Z,12.19
2023-03-27T16:47:29.635Z,12.46
2023-03-27T16:50:10.942Z,13.26
2023-03-27T16:52:39.201Z,11.79
2023-03-27T16:55:08.106Z,11.96
2023-03-27T16:57:36.045Z,11.81
2023-03-27T17:00:05.410Z,10.16
2023-03-27T17:02:34.759Z,10.08
2023-03-27T17:05:04.340Z,10.30
2023-03-27T17:07:32.121Z,10.24
2023-03-27T17:10:00.069Z,9.64
2023-03-27T17:12:28.728Z,9.82
2023-03-27T17:14:56.822Z,10.20
2023-03-27T17:17:24.870Z,9.38
2023-03-27T17:19:52.758Z,9.13
2023-03-27T17:22:21.990Z,8.95
2023-03-27T17:24:56.940Z,8.99
2023-03-27T17:27:26.601Z,9.10
2023-03-27T17:29:55.549Z,10.10
2023-03-27T17:32:23.859Z,9.71
2023-03-27T17:34:52.376Z,9.30
2023-03-27T17:37:22.128Z,9.25
2023-03-27T17:39:50.167Z,8.86
2023-03-27T17:42:18.171Z,8.96
2023-03-27T17:44:46.330Z,9.11
2023-03-27T17:47:14.362Z,8.96
2023-03-27T17:49:43.240Z,9.06
2023-03-27T17:52:12.048Z,8.74
2023-03-27T17:54:41.553Z,8.65
2023-03-27T17:57:09.576Z,8.47
2023-03-27T17:59:38.481Z,8.82
2023-03-27T18:02:07.200Z,8.57
2023-03-27T18:04:35.338Z,8.44
2023-03-27T18:07:02.978Z,8.78
2023-03-27T18:09:31.289Z,9.03
2023-03-27T18:12:00.345Z,8.56
2023-03-27T18:14:28.020Z,8.70
2023-03-27T18:17:09.085Z,8.47
2023-03-27T18:19:37.116Z,7.99
2023-03-27T18:22:06.055Z,8.36
2023-03-27T18:24:33.697Z,8.54
2023-03-27T18:27:05.011Z,8.17
2023-03-27T18:29:33.854Z,8.30
2023-03-27T18:32:02.216Z,8.47
2023-03-27T18:34:29.968Z,8.17
2023-03-27T18:36:58.092Z,8.23
2023-03-27T18:39:25.748Z,8.71
2023-03-27T18:41:54.886Z,8.26
2023-03-27T18:44:23.958Z,8.50
2023-03-27T18:46:51.577Z,8.77
2023-03-27T18:49:25.061Z,7.97
2023-03-27T18:51:53.494Z,8.37
2023-03-27T18:54:21.366Z,8.20
2023-03-27T18:56:49.420Z,8.35
2023-03-27T18:59:17.178Z,8.13
2023-03-27T19:01:46.624Z,8.19
2023-03-27T19:04:16.600Z,7.90
2023-03-27T19:06:46.264Z,8.28
2023-03-27T19:09:14.124Z,8.47
2023-03-27T19:11:41.796Z,8.21
2023-03-27T19:14:09.850Z,8.32
2023-03-27T19:16:37.766Z,8.63
2023-03-27T19:19:07.007Z,8.36
2023-03-27T19:21:34.657Z,8.12
2023-03-27T19:24:02.779Z,8.71
2023-03-27T19:26:30.486Z,8.85
2023-03-27T19:28:58.148Z,8.87
2023-03-27T19:31:27.484Z,8.03
2023-03-27T19:33:55.427Z,8.54
2023-03-27T19:36:24.990Z,8.57
2023-03-27T19:38:52.831Z,8.71
2023-03-27T19:41:20.609Z,7.92
2023-03-27T19:43:48.267Z,8.44
2023-03-27T19:46:17.015Z,8.25
2023-03-27T19:49:06.975Z,8.27
2023-03-27T19:51:37.938Z,8.30
2023-03-27T19:54:05.821Z,8.40
2023-03-27T19:56:33.489Z,7.82
2023-03-27T19:59:01.223Z,8.32
2023-03-27T20:01:29.942Z,8.06
2023-03-27T20:03:58.157Z,7.89
2023-03-27T20:06:28.876Z,7.57
2023-03-27T20:09:00.369Z,7.62
2023-03-27T20:11:28.668Z,7.76
2023-03-27T20:13:57.218Z,7.86
2023-03-27T20:16:26.344Z,7.75
2023-03-27T20:19:03.230Z,7.34
2023-03-27T20:21:32.625Z,7.51
2023-03-27T20:24:01.927Z,7.11
2023-03-27T20:26:29.950Z,6.96
2023-03-27T20:28:57.906Z,6.99
2023-03-27T20:31:25.764Z,7.45
2023-03-27T20:33:53.591Z,7.13
2023-03-27T20:36:23.236Z,7.23
2023-03-27T20:38:52.685Z,7.20
2023-03-27T20:41:21.956Z,7.50
2023-03-27T20:43:50.981Z,7.42
2023-03-27T20:46:18.861Z,7.01
2023-03-27T20:48:54.312Z,7.68
2023-03-27T20:51:24.922Z,6.95
2023-03-27T20:53:56.214Z,7.37
2023-03-27T20:56:25.625Z,7.28
2023-03-27T20:58:53.344Z,7.04
2023-03-27T21:01:27.637Z,7.26
2023-03-27T21:03:58.623Z,7.51
2023-03-27T21:06:26.620Z,6.69
2023-03-27T21:08:54.462Z,6.75
2023-03-27T21:11:22.173Z,6.68
2023-03-27T21:13:51.688Z,6.80
2023-03-27T21:16:19.515Z,6.62
2023-03-27T21:18:47.242Z,6.96
2023-03-27T21:21:14.965Z,6.62
2023-03-27T21:23:42.722Z,6.54
2023-03-27T21:26:10.576Z,7.17
2023-03-27T21:28:38.399Z,7.00
2023-03-27T21:31:08.894Z,6.78
2023-03-27T21:33:36.897Z,7.08
2023-03-27T21:36:05.023Z,6.66
2023-03-27T21:38:32.813Z,6.72
2023-03-27T21:41:02.341Z,6.74
2023-03-27T21:43:30.823Z,7.23
2023-03-27T21:46:01.799Z,6.26
2023-03-27T21:48:31.190Z,6.69
2023-03-27T21:51:02.210Z,6.34
2023-03-27T21:53:29.982Z,6.84
2023-03-27T21:55:58.368Z,6.74
2023-03-27T21:58:27.049Z,6.81
2023-03-27T22:01:08.681Z,6.83
2023-03-27T22:03:37.996Z,6.50
2023-03-27T22:06:12.175Z,6.91
2023-03-27T22:08:40.849Z,7.45
2023-03-27T22:11:08.566Z,7.02
2023-03-27T22:13:37.065Z,7.25
2023-03-27T22:16:08.992Z,6.54
2023-03-27T22:18:38.466Z,6.72
2023-03-27T22:21:14.606Z,6.67
2023-03-27T22:23:42.315Z,7.16
2023-03-27T22:26:10.229Z,6.76
2023-03-27T22:28:38.072Z,6.27
2023-03-27T22:31:06.401Z,6.90
2023-03-27T22:33:34.372Z,6.90
2023-03-27T22:39:02.817Z,6.73
2023-03-27T22:41:30.825Z,6.55
2023-03-27T22:44:01.072Z,6.96
2023-03-27T22:46:29.340Z,6.54
2023-03-27T22:48:58.325Z,6.13
2023-03-27T22:51:29.709Z,6.69
2023-03-27T22:53:57.521Z,6.29
2023-03-27T22:56:25.524Z,6.33
2023-03-27T22:58:53.210Z,6.05
2023-03-27T23:01:20.978Z,6.54
2023-03-27T23:03:48.873Z,6.35
2023-03-27T23:06:18.264Z,6.33
2023-03-27T23:08:48.647Z,6.51
2023-03-27T23:11:16.835Z,6.95
2023-03-27T23:13:44.682Z,6.59
2023-03-27T23:16:13.126Z,6.11
2023-03-27T23:18:41.212Z,6.40
2023-03-27T23:21:11.210Z,6.17
2023-03-27T23:23:40.410Z,6.55
2023-03-27T23:26:10.071Z,6.32
2023-03-27T23:28:39.426Z,6.24
2023-03-27T23:31:09.051Z,6.24
2023-03-27T23:33:38.342Z,6.32
2023-03-27T23:36:08.462Z,6.76
2023-03-27T23:38:37.556Z,6.20
2023-03-27T23:41:09.361Z,6.33
2023-03-27T23:43:37.274Z,6.16
2023-03-27T23:46:08.614Z,6.02
2023-03-27T23:48:36.397Z,5.89
2023-03-27T23:51:04.405Z,5.86
2023-03-27T23:53:32.392Z,5.90
2023-03-27T23:56:01.104Z,5.94
2023-03-27T23:58:32.570Z,6.05
